sensor_id;sensor_type;location;lat;lon;timestamp;pressure;altitude;pressure_sealevel;temperature;humidity
66681;BME280;53575;51.366;12.350;2023-04-10T00:01:31;101235.97;;;5.45;98.86
66681;BME280;53575;51.366;12.350;2023-04-10T00:04:00;101235.09;;;5.45;99.49
66681;BME280;53575;51.366;12.350;2023-04-10T00:06:25;101235.44;;;5.27;100.00
66681;BME280;53575;51.366;12.350;2023-04-10T00:08:52;101240.69;;;5.30;100.00
66681;BME280;53575;51.366;12.350;2023-04-10T00:11:17;101240.28;;;5.16;100.00
66681;BME280;53575;51.366;12.350;2023-04-10T00:13:43;101241.03;;;5.12;100.00
66681;BME280;53575;51.366;12.350;2023-04-10T00:16:09;101241.59;;;5.03;100.00
66681;BME280;53575;51.366;12.350;2023-04-10T00:18:35;101239.25;;;5.11;100.00
66681;BME280;53575;51.366;12.350;2023-04-10T00:21:02;101242.47;;;5.31;100.00
66681;BME280;53575;51.366;12.350;2023-04-10T00:23:27;101231.47;;;5.38;100.00
66681;BME280;53575;51.366;12.350;2023-04-10T00:25:56;101236.56;;;5.35;100.00
66681;BME280;53575;51.366;12.350;2023-04-10T00:28:21;101233.16;;;5.37;100.00
66681;BME280;53575;51.366;12.350;2023-04-10T00:30:47;101226.56;;;5.49;100.00
66681;BME280;53575;51.366;12.350;2023-04-10T00:33:12;101228.88;;;5.38;100.00
66681;BME280;53575;51.366;12.350;2023-04-10T00:35:38;101227.84;;;5.63;100.00
66681;BME280;53575;51.366;12.350;2023-04-10T00:38:03;101226.31;;;5.40;100.00
66681;BME280;53575;51.366;12.350;2023-04-10T00:40:28;101230.25;;;5.27;100.00
66681;BME280;53575;51.366;12.350;2023-04-10T00:42:54;101224.69;;;5.43;100.00
66681;BME280;53575;51.366;12.350;2023-04-10T00:45:20;101218.41;;;5.35;100.00
66681;BME280;53575;51.366;12.350;2023-04-10T00:47:45;101222.00;;;5.40;100.00
66681;BME280;53575;51.366;12.350;2023-04-10T00:50:11;101218.19;;;5.27;100.00
66681;BME280;53575;51.366;12.350;2023-04-10T00:52:36;101220.66;;;5.23;100.00
66681;BME280;53575;51.366;12.350;2023-04-10T00:55:02;101211.34;;;5.01;100.00
66681;BME280;53575;51.366;12.350;2023-04-10T00:57:28;101215.94;;;5.11;100.00
66681;BME280;53575;51.366;12.350;2023-04-10T00:59:54;101203.41;;;5.25;100.00
66681;BME280;53575;51.366;12.350;2023-04-10T01:02:19;101199.66;;;5.15;100.00
66681;BME280;53575;51.366;12.350;2023-04-10T01:04:45;101204.66;;;5.09;100.00
66681;BME280;53575;51.366;12.350;2023-04-10T01:09:58;101213.03;;;5.00;100.00
66681;BME280;53575;51.366;12.350;2023-04-10T01:12:49;101209.63;;;5.01;100.00
66681;BME280;53575;51.366;12.350;2023-04-10T01:15:20;101208.97;;;5.08;100.00
66681;BME280;53575;51.366;12.350;2023-04-10T01:17:57;101197.47;;;5.29;100.00
66681;BME280;53575;51.366;12.350;2023-04-10T01:20:28;101190.94;;;5.42;100.00
66681;BME280;53575;51.366;12.350;2023-04-10T01:26:02;101184.75;;;5.36;100.00
66681;BME280;53575;51.366;12.350;2023-04-10T01:31:18;101183.97;;;5.39;100.00
66681;BME280;53575;51.366;12.350;2023-04-10T01:33:49;101186.34;;;5.31;100.00
66681;BME280;53575;51.366;12.350;2023-04-10T01:36:25;101195.38;;;5.16;100.00
66681;BME280;53575;51.366;12.350;2023-04-10T01:38:53;101195.28;;;5.12;100.00
66681;BME280;53575;51.366;12.350;2023-04-10T01:41:21;101199.38;;;5.06;100.00
66681;BME280;53575;51.366;12.350;2023-04-10T01:43:49;101204.47;;;5.03;100.00
66681;BME280;53575;51.366;12.350;2023-04-10T01:46:17;101199.06;;;4.95;100.00
66681;BME280;53575;51.366;12.350;2023-04-10T01:48:45;101188.75;;;4.97;100.00
66681;BME280;53575;51.366;12.350;2023-04-10T01:51:12;101197.91;;;4.85;100.00
66681;BME280;53575;51.366;12.350;2023-04-10T01:53:40;101193.47;;;4.81;100.00
66681;BME280;53575;51.366;12.350;2023-04-10T01:56:07;101192.38;;;4.75;100.00
66681;BME280;53575;51.366;12.350;2023-04-10T01:58:34;101196.56;;;4.70;100.00
66681;BME280;53575;51.366;12.350;2023-04-10T02:01:00;101190.91;;;4.83;100.00
66681;BME280;53575;51.366;12.350;2023-04-10T02:03:26;101190.63;;;4.74;100.00
66681;BME280;53575;51.366;12.350;2023-04-10T02:09:24;101196.44;;;4.67;100.00
66681;BME280;53575;51.366;12.350;2023-04-10T02:12:03;101192.78;;;4.60;100.00
66681;BME280;53575;51.366;12.350;2023-04-10T02:14:31;101192.25;;;4.70;100.00
66681;BME280;53575;51.366;12.350;2023-04-10T02:16:59;101200.78;;;4.68;100.00
66681;BME280;53575;51.366;12.350;2023-04-10T02:19:26;101201.88;;;4.47;100.00
66681;BME280;53575;51.366;12.350;2023-04-10T02:21:52;101199.31;;;4.49;100.00
66681;BME280;53575;51.366;12.350;2023-04-10T02:24:21;101194.97;;;4.48;100.00
66681;BME280;53575;51.366;12.350;2023-04-10T02:26:49;101190.72;;;4.50;100.00
66681;BME280;53575;51.366;12.350;2023-04-10T02:29:16;101197.41;;;4.43;100.00
66681;BME280;53575;51.366;12.350;2023-04-10T02:31:42;101197.53;;;4.73;100.00
66681;BME280;53575;51.366;12.350;2023-04-10T02:34:08;101201.88;;;4.74;100.00
66681;BME280;53575;51.366;12.350;2023-04-10T02:36:37;101201.66;;;4.68;100.00
66681;BME280;53575;51.366;12.350;2023-04-10T02:39:03;101204.94;;;4.62;100.00
66681;BME280;53575;51.366;12.350;2023-04-10T02:41:29;101203.03;;;4.57;100.00
66681;BME280;53575;51.366;12.350;2023-04-10T02:43:55;101202.72;;;4.73;100.00
66681;BME280;53575;51.366;12.350;2023-04-10T02:46:20;101204.56;;;4.50;100.00
66681;BME280;53575;51.366;12.350;2023-04-10T02:48:46;101204.84;;;4.34;100.00
66681;BME280;53575;51.366;12.350;2023-04-10T02:51:12;101206.91;;;4.70;100.00
66681;BME280;53575;51.366;12.350;2023-04-10T02:53:37;101209.56;;;4.73;100.00
66681;BME280;53575;51.366;12.350;2023-04-10T02:56:03;101212.72;;;4.62;100.00
66681;BME280;53575;51.366;12.350;2023-04-10T02:58:32;101214.13;;;4.80;100.00
66681;BME280;53575;51.366;12.350;2023-04-10T03:00:58;101217.88;;;4.62;100.00
66681;BME280;53575;51.366;12.350;2023-04-10T03:03:24;101212.56;;;4.58;100.00
66681;BME280;53575;51.366;12.350;2023-04-10T03:05:49;101216.03;;;4.58;100.00
66681;BME280;53575;51.366;12.350;2023-04-10T03:08:15;101212.59;;;4.59;100.00
66681;BME280;53575;51.366;12.350;2023-04-10T03:10:44;101216.69;;;4.53;100.00
66681;BME280;53575;51.366;12.350;2023-04-10T03:13:11;101209.91;;;4.56;100.00
66681;BME280;53575;51.366;12.350;2023-04-10T03:15:36;101220.41;;;4.61;100.00
66681;BME280;53575;51.366;12.350;2023-04-10T03:18:04;101212.47;;;4.55;100.00
66681;BME280;53575;51.366;12.350;2023-04-10T03:20:35;101214.63;;;4.43;100.00
66681;BME280;53575;51.366;12.350;2023-04-10T03:23:01;101207.19;;;4.26;100.00
66681;BME280;53575;51.366;12.350;2023-04-10T03:25:27;101198.88;;;4.09;100.00
66681;BME280;53575;51.366;12.350;2023-04-10T03:27:53;101208.13;;;4.28;100.00
66681;BME280;53575;51.366;12.350;2023-04-10T03:30:18;101200.22;;;4.24;100.00
66681;BME280;53575;51.366;12.350;2023-04-10T03:32:44;101204.22;;;4.15;100.00
66681;BME280;53575;51.366;12.350;2023-04-10T03:35:10;101203.97;;;4.08;100.00
66681;BME280;53575;51.366;12.350;2023-04-10T03:37:36;101194.19;;;3.99;100.00
66681;BME280;53575;51.366;12.350;2023-04-10T03:40:06;101198.50;;;3.99;100.00
66681;BME280;53575;51.366;12.350;2023-04-10T03:42:31;101192.56;;;4.01;100.00
66681;BME280;53575;51.366;12.350;2023-04-10T03:44:57;101195.91;;;3.99;100.00
66681;BME280;53575;51.366;12.350;2023-04-10T03:47:22;101201.50;;;3.85;100.00
66681;BME280;53575;51.366;12.350;2023-04-10T03:49:48;101199.09;;;3.91;100.00
66681;BME280;53575;51.366;12.350;2023-04-10T03:52:14;101195.69;;;3.92;100.00
66681;BME280;53575;51.366;12.350;2023-04-10T03:54:40;101196.31;;;3.85;100.00
66681;BME280;53575;51.366;12.350;2023-04-10T03:57:06;101200.94;;;3.94;100.00
66681;BME280;53575;51.366;12.350;2023-04-10T03:59:32;101202.25;;;3.83;100.00
66681;BME280;53575;51.366;12.350;2023-04-10T04:01:57;101201.97;;;3.75;100.00
66681;BME280;53575;51.366;12.350;2023-04-10T04:04:23;101199.81;;;3.87;100.00
66681;BME280;53575;51.366;12.350;2023-04-10T04:06:50;101204.56;;;3.75;100.00
66681;BME280;53575;51.366;12.350;2023-04-10T04:09:15;101207.78;;;3.70;100.00
66681;BME280;53575;51.366;12.350;2023-04-10T04:11:41;101197.28;;;3.65;100.00
66681;BME280;53575;51.366;12.350;2023-04-10T04:14:06;101209.50;;;3.69;100.00
66681;BME280;53575;51.366;12.350;2023-04-10T04:16:32;101202.69;;;3.71;100.00
66681;BME280;53575;51.366;12.350;2023-04-10T04:18:57;101201.88;;;3.72;100.00
66681;BME280;53575;51.366;12.350;2023-04-10T04:21:23;101202.44;;;3.89;100.00
66681;BME280;53575;51.366;12.350;2023-04-10T04:23:49;101203.50;;;3.94;100.00
66681;BME280;53575;51.366;12.350;2023-04-10T04:26:14;101205.41;;;4.00;100.00
66681;BME280;53575;51.366;12.350;2023-04-10T04:28:40;101200.25;;;4.00;100.00
66681;BME280;53575;51.366;12.350;2023-04-10T04:31:06;101210.34;;;4.18;100.00
66681;BME280;53575;51.366;12.350;2023-04-10T04:33:31;101208.38;;;4.10;100.00
66681;BME280;53575;51.366;12.350;2023-04-10T04:35:56;101211.19;;;4.17;100.00
66681;BME280;53575;51.366;12.350;2023-04-10T04:38:22;101209.22;;;4.09;100.00
66681;BME280;53575;51.366;12.350;2023-04-10T04:40:47;101206.38;;;4.02;100.00
66681;BME280;53575;51.366;12.350;2023-04-10T04:43:13;101209.94;;;4.05;100.00
66681;BME280;53575;51.366;12.350;2023-04-10T04:45:39;101207.34;;;4.05;100.00
66681;BME280;53575;51.366;12.350;2023-04-10T04:48:04;101214.50;;;4.12;100.00
66681;BME280;53575;51.366;12.350;2023-04-10T04:50:30;101215.31;;;4.11;100.00
66681;BME280;53575;51.366;12.350;2023-04-10T04:52:55;101213.97;;;3.97;100.00
66681;BME280;53575;51.366;12.350;2023-04-10T04:55:21;101214.16;;;4.03;100.00
66681;BME280;53575;51.366;12.350;2023-04-10T04:57:46;101217.00;;;4.11;100.00
66681;BME280;53575;51.366;12.350;2023-04-10T05:00:12;101209.09;;;4.06;100.00
66681;BME280;53575;51.366;12.350;2023-04-10T05:02:38;101211.06;;;4.13;100.00
66681;BME280;53575;51.366;12.350;2023-04-10T05:05:04;101218.34;;;4.00;100.00
66681;BME280;53575;51.366;12.350;2023-04-10T05:07:31;101216.75;;;4.03;100.00
66681;BME280;53575;51.366;12.350;2023-04-10T05:09:57;101216.75;;;4.03;100.00
66681;BME280;53575;51.366;12.350;2023-04-10T05:12:22;101218.47;;;4.03;100.00
66681;BME280;53575;51.366;12.350;2023-04-10T05:14:48;101213.25;;;4.01;100.00
66681;BME280;53575;51.366;12.350;2023-04-10T05:17:13;101209.97;;;4.07;100.00
66681;BME280;53575;51.366;12.350;2023-04-10T05:19:41;101217.25;;;4.17;100.00
66681;BME280;53575;51.366;12.350;2023-04-10T05:22:06;101210.94;;;4.09;100.00
66681;BME280;53575;51.366;12.350;2023-04-10T05:24:32;101216.25;;;4.13;100.00
66681;BME280;53575;51.366;12.350;2023-04-10T05:26:57;101217.81;;;4.08;100.00
66681;BME280;53575;51.366;12.350;2023-04-10T05:29:23;101211.13;;;4.15;100.00
66681;BME280;53575;51.366;12.350;2023-04-10T05:31:49;101212.00;;;4.15;100.00
66681;BME280;53575;51.366;12.350;2023-04-10T05:34:15;101214.06;;;4.26;100.00
66681;BME280;53575;51.366;12.350;2023-04-10T05:36:41;101220.50;;;4.37;99.81
66681;BME280;53575;51.366;12.350;2023-04-10T05:39:07;101217.53;;;4.52;99.36
66681;BME280;53575;51.366;12.350;2023-04-10T05:41:32;101221.88;;;4.53;98.56
66681;BME280;53575;51.366;12.350;2023-04-10T05:43:57;101228.34;;;4.66;98.37
66681;BME280;53575;51.366;12.350;2023-04-10T05:46:23;101222.47;;;4.71;97.82
66681;BME280;53575;51.366;12.350;2023-04-10T05:48:48;101219.28;;;4.80;97.90
66681;BME280;53575;51.366;12.350;2023-04-10T05:51:14;101223.66;;;4.81;97.84
66681;BME280;53575;51.366;12.350;2023-04-10T05:53:39;101223.94;;;4.90;97.24
66681;BME280;53575;51.366;12.350;2023-04-10T05:56:05;101226.78;;;4.98;96.99
66681;BME280;53575;51.366;12.350;2023-04-10T05:58:31;101227.63;;;4.97;95.86
66681;BME280;53575;51.366;12.350;2023-04-10T06:00:56;101224.03;;;4.93;96.64
66681;BME280;53575;51.366;12.350;2023-04-10T06:03:22;101217.16;;;4.94;97.21
66681;BME280;53575;51.366;12.350;2023-04-10T06:05:48;101219.66;;;4.92;97.94
66681;BME280;53575;51.366;12.350;2023-04-10T06:08:13;101221.97;;;5.10;97.89
66681;BME280;53575;51.366;12.350;2023-04-10T06:10:39;101229.19;;;5.20;96.38
66681;BME280;53575;51.366;12.350;2023-04-10T06:13:05;101223.13;;;5.20;96.50
66681;BME280;53575;51.366;12.350;2023-04-10T06:15:30;101228.72;;;5.33;96.32
66681;BME280;53575;51.366;12.350;2023-04-10T06:17:56;101222.00;;;5.40;96.27
66681;BME280;53575;51.366;12.350;2023-04-10T06:20:22;101227.41;;;5.48;96.77
66681;BME280;53575;51.366;12.350;2023-04-10T06:22:47;101210.56;;;5.63;94.99
66681;BME280;53575;51.366;12.350;2023-04-10T06:25:12;101211.66;;;5.72;94.02
66681;BME280;53575;51.366;12.350;2023-04-10T06:27:38;101211.88;;;5.79;94.49
66681;BME280;53575;51.366;12.350;2023-04-10T06:30:04;101213.69;;;5.82;94.44
66681;BME280;53575;51.366;12.350;2023-04-10T06:32:30;101220.84;;;5.91;93.45
66681;BME280;53575;51.366;12.350;2023-04-10T06:34:56;101206.25;;;5.94;93.19
66681;BME280;53575;51.366;12.350;2023-04-10T06:37:28;101214.16;;;5.99;92.62
66681;BME280;53575;51.366;12.350;2023-04-10T06:42:31;101200.78;;;6.15;92.70
66681;BME280;53575;51.366;12.350;2023-04-10T06:44:57;101197.34;;;6.16;92.28
66681;BME280;53575;51.366;12.350;2023-04-10T06:47:22;101195.94;;;6.29;91.64
66681;BME280;53575;51.366;12.350;2023-04-10T06:49:48;101203.97;;;6.38;91.76
66681;BME280;53575;51.366;12.350;2023-04-10T06:52:13;101201.69;;;6.52;91.17
66681;BME280;53575;51.366;12.350;2023-04-10T06:54:39;101191.69;;;6.67;90.45
66681;BME280;53575;51.366;12.350;2023-04-10T06:57:05;101189.25;;;6.75;89.72
66681;BME280;53575;51.366;12.350;2023-04-10T06:59:31;101198.13;;;6.83;89.05
66681;BME280;53575;51.366;12.350;2023-04-10T07:01:59;101195.91;;;7.00;88.25
66681;BME280;53575;51.366;12.350;2023-04-10T07:04:24;101186.38;;;7.00;88.36
66681;BME280;53575;51.366;12.350;2023-04-10T07:06:49;101195.38;;;7.15;87.61
66681;BME280;53575;51.366;12.350;2023-04-10T07:09:15;101196.47;;;7.26;86.90
66681;BME280;53575;51.366;12.350;2023-04-10T07:11:40;101191.63;;;7.43;86.77
66681;BME280;53575;51.366;12.350;2023-04-10T07:14:06;101192.50;;;7.43;86.28
66681;BME280;53575;51.366;12.350;2023-04-10T07:16:31;101197.84;;;7.49;86.49
66681;BME280;53575;51.366;12.350;2023-04-10T07:18:57;101190.25;;;7.60;86.56
66681;BME280;53575;51.366;12.350;2023-04-10T07:21:22;101188.91;;;7.79;85.02
66681;BME280;53575;51.366;12.350;2023-04-10T07:23:47;101188.06;;;7.81;84.46
66681;BME280;53575;51.366;12.350;2023-04-10T07:26:13;101195.13;;;7.87;84.43
66681;BME280;53575;51.366;12.350;2023-04-10T07:28:39;101198.81;;;7.98;83.91
66681;BME280;53575;51.366;12.350;2023-04-10T07:31:04;101194.69;;;8.13;83.72
66681;BME280;53575;51.366;12.350;2023-04-10T07:33:32;101190.41;;;8.15;83.21
66681;BME280;53575;51.366;12.350;2023-04-10T07:35:57;101188.81;;;8.21;83.03
66681;BME280;53575;51.366;12.350;2023-04-10T07:38:23;101186.34;;;8.30;82.78
66681;BME280;53575;51.366;12.350;2023-04-10T07:40:55;101185.78;;;8.47;82.62
66681;BME280;53575;51.366;12.350;2023-04-10T07:43:20;101185.00;;;8.51;81.87
66681;BME280;53575;51.366;12.350;2023-04-10T07:45:46;101175.78;;;8.73;81.59
66681;BME280;53575;51.366;12.350;2023-04-10T07:48:11;101176.06;;;8.93;80.49
66681;BME280;53575;51.366;12.350;2023-04-10T07:50:37;101177.88;;;8.97;79.57
66681;BME280;53575;51.366;12.350;2023-04-10T07:53:02;101169.31;;;9.06;79.13
66681;BME280;53575;51.366;12.350;2023-04-10T07:55:36;101173.91;;;9.26;78.31
66681;BME280;53575;51.366;12.350;2023-04-10T07:58:02;101174.06;;;9.36;77.84
66681;BME280;53575;51.366;12.350;2023-04-10T08:00:27;101164.53;;;9.39;77.37
66681;BME280;53575;51.366;12.350;2023-04-10T08:02:52;101162.03;;;9.47;77.58
66681;BME280;53575;51.366;12.350;2023-04-10T08:05:18;101163.91;;;9.59;77.73
66681;BME280;53575;51.366;12.350;2023-04-10T08:07:43;101165.75;;;9.70;77.04
66681;BME280;53575;51.366;12.350;2023-04-10T08:10:10;101160.81;;;9.98;75.76
66681;BME280;53575;51.366;12.350;2023-04-10T08:12:35;101166.13;;;10.07;75.03
66681;BME280;53575;51.366;12.350;2023-04-10T08:15:01;101158.44;;;10.22;74.05
66681;BME280;53575;51.366;12.350;2023-04-10T08:17:26;101161.97;;;10.26;73.60
66681;BME280;53575;51.366;12.350;2023-04-10T08:19:52;101161.19;;;10.35;72.59
66681;BME280;53575;51.366;12.350;2023-04-10T08:22:17;101157.00;;;10.55;72.09
66681;BME280;53575;51.366;12.350;2023-04-10T08:24:42;101150.09;;;10.68;70.40
66681;BME280;53575;51.366;12.350;2023-04-10T08:27:08;101154.56;;;10.81;69.91
66681;BME280;53575;51.366;12.350;2023-04-10T08:29:33;101151.09;;;10.87;69.33
66681;BME280;53575;51.366;12.350;2023-04-10T08:31:59;101137.25;;;11.00;68.61
66681;BME280;53575;51.366;12.350;2023-04-10T08:34:25;101139.94;;;11.11;67.93
66681;BME280;53575;51.366;12.350;2023-04-10T08:36:51;101142.59;;;11.29;66.75
66681;BME280;53575;51.366;12.350;2023-04-10T08:39:16;101143.53;;;11.37;65.84
66681;BME280;53575;51.366;12.350;2023-04-10T08:41:42;101137.44;;;11.46;65.72
66681;BME280;53575;51.366;12.350;2023-04-10T08:44:09;101140.09;;;11.57;64.90
66681;BME280;53575;51.366;12.350;2023-04-10T08:46:35;101127.03;;;11.61;64.65
66681;BME280;53575;51.366;12.350;2023-04-10T08:49:03;101134.03;;;11.76;65.30
66681;BME280;53575;51.366;12.350;2023-04-10T08:51:36;101132.28;;;11.83;64.67
66681;BME280;53575;51.366;12.350;2023-04-10T08:54:10;101127.13;;;11.87;64.49
66681;BME280;53575;51.366;12.350;2023-04-10T08:56:40;101126.25;;;11.94;64.13
66681;BME280;53575;51.366;12.350;2023-04-10T08:59:07;101117.50;;;12.17;63.53
66681;BME280;53575;51.366;12.350;2023-04-10T09:01:33;101111.41;;;12.33;63.26
66681;BME280;53575;51.366;12.350;2023-04-10T09:03:59;101107.91;;;12.30;62.01
66681;BME280;53575;51.366;12.350;2023-04-10T09:06:25;101112.25;;;12.43;61.63
66681;BME280;53575;51.366;12.350;2023-04-10T09:08:51;101103.50;;;12.62;61.00
66681;BME280;53575;51.366;12.350;2023-04-10T09:11:17;101094.72;;;12.86;60.69
66681;BME280;53575;51.366;12.350;2023-04-10T09:13:43;101096.38;;;13.10;59.66
66681;BME280;53575;51.366;12.350;2023-04-10T09:16:10;101093.69;;;13.32;59.58
66681;BME280;53575;51.366;12.350;2023-04-10T09:18:49;101099.63;;;13.64;59.20
66681;BME280;53575;51.366;12.350;2023-04-10T09:21:18;101095.28;;;13.60;57.37
66681;BME280;53575;51.366;12.350;2023-04-10T09:23:45;101089.13;;;13.61;57.56
66681;BME280;53575;51.366;12.350;2023-04-10T09:26:30;101093.44;;;13.78;56.78
66681;BME280;53575;51.366;12.350;2023-04-10T09:29:04;101086.31;;;13.94;56.50
66681;BME280;53575;51.366;12.350;2023-04-10T09:31:35;101080.94;;;14.09;56.12
66681;BME280;53575;51.366;12.350;2023-04-10T09:36:35;101067.53;;;14.36;55.78
66681;BME280;53575;51.366;12.350;2023-04-10T09:39:09;101066.53;;;14.51;55.95
66681;BME280;53575;51.366;12.350;2023-04-10T09:41:52;101057.59;;;14.68;54.22
66681;BME280;53575;51.366;12.350;2023-04-10T09:44:28;101058.34;;;14.79;54.44
66681;BME280;53575;51.366;12.350;2023-04-10T09:49:51;101045.00;;;14.94;52.39
66681;BME280;53575;51.366;12.350;2023-04-10T09:52:22;101043.34;;;14.85;51.78
66681;BME280;53575;51.366;12.350;2023-04-10T09:54:49;101044.94;;;15.00;52.11
66681;BME280;53575;51.366;12.350;2023-04-10T09:57:17;101045.84;;;14.98;51.29
66681;BME280;53575;51.366;12.350;2023-04-10T09:59:48;101041.47;;;14.97;51.90
66681;BME280;53575;51.366;12.350;2023-04-10T10:02:15;101039.94;;;14.76;51.57
66681;BME280;53575;51.366;12.350;2023-04-10T10:04:43;101031.00;;;14.92;52.01
66681;BME280;53575;51.366;12.350;2023-04-10T10:07:09;101019.69;;;14.84;52.03
66681;BME280;53575;51.366;12.350;2023-04-10T10:09:36;101021.25;;;15.00;50.88
66681;BME280;53575;51.366;12.350;2023-04-10T10:12:02;101016.56;;;15.21;51.02
66681;BME280;53575;51.366;12.350;2023-04-10T10:14:29;101016.59;;;15.19;51.61
66681;BME280;53575;51.366;12.350;2023-04-10T10:16:59;101007.84;;;15.17;50.56
66681;BME280;53575;51.366;12.350;2023-04-10T10:22:21;101010.25;;;15.32;51.61
66681;BME280;53575;51.366;12.350;2023-04-10T10:24:49;101002.44;;;15.28;50.47
66681;BME280;53575;51.366;12.350;2023-04-10T10:27:17;100992.69;;;15.34;49.71
66681;BME280;53575;51.366;12.350;2023-04-10T10:29:44;100995.09;;;15.48;49.80
66681;BME280;53575;51.366;12.350;2023-04-10T10:32:14;100990.88;;;15.38;49.78
66681;BME280;53575;51.366;12.350;2023-04-10T10:34:40;100989.03;;;15.43;49.60
66681;BME280;53575;51.366;12.350;2023-04-10T10:37:06;100980.28;;;15.41;49.09
66681;BME280;53575;51.366;12.350;2023-04-10T10:44:51;100959.50;;;15.80;48.46
66681;BME280;53575;51.366;12.350;2023-04-10T10:47:19;100962.00;;;15.86;48.30
66681;BME280;53575;51.366;12.350;2023-04-10T10:49:51;100951.50;;;15.84;47.84
66681;BME280;53575;51.366;12.350;2023-04-10T10:52:45;100945.25;;;15.90;48.42
66681;BME280;53575;51.366;12.350;2023-04-10T10:58:13;100951.47;;;15.88;46.57
66681;BME280;53575;51.366;12.350;2023-04-10T11:01:04;100938.19;;;15.91;47.50
66681;BME280;53575;51.366;12.350;2023-04-10T11:03:30;100941.69;;;15.93;47.71
66681;BME280;53575;51.366;12.350;2023-04-10T11:06:06;100938.91;;;16.00;48.11
66681;BME280;53575;51.366;12.350;2023-04-10T11:11:06;100933.06;;;16.31;47.15
66681;BME280;53575;51.366;12.350;2023-04-10T11:13:36;100919.09;;;16.24;48.40
66681;BME280;53575;51.366;12.350;2023-04-10T11:16:04;100926.25;;;16.18;47.68
66681;BME280;53575;51.366;12.350;2023-04-10T11:19:00;100913.97;;;16.17;48.53
66681;BME280;53575;51.366;12.350;2023-04-10T11:21:25;100908.34;;;16.35;49.70
66681;BME280;53575;51.366;12.350;2023-04-10T11:31:37;100896.34;;;17.02;47.92
66681;BME280;53575;51.366;12.350;2023-04-10T11:34:08;100894.47;;;17.08;47.65
66681;BME280;53575;51.366;12.350;2023-04-10T11:36:43;100897.97;;;17.08;46.99
66681;BME280;53575;51.366;12.350;2023-04-10T11:39:11;100892.13;;;16.95;45.67
66681;BME280;53575;51.366;12.350;2023-04-10T11:44:10;100881.69;;;16.91;46.77
66681;BME280;53575;51.366;12.350;2023-04-10T11:46:40;100875.13;;;17.05;47.52
66681;BME280;53575;51.366;12.350;2023-04-10T11:49:07;100875.91;;;17.46;47.40
66681;BME280;53575;51.366;12.350;2023-04-10T11:51:35;100874.31;;;17.39;44.87
66681;BME280;53575;51.366;12.350;2023-04-10T11:56:32;100875.97;;;17.79;44.59
66681;BME280;53575;51.366;12.350;2023-04-10T11:58:58;100873.44;;;17.73;43.83
66681;BME280;53575;51.366;12.350;2023-04-10T12:01:23;100859.91;;;17.51;44.40
66681;BME280;53575;51.366;12.350;2023-04-10T12:03:49;100863.44;;;17.17;45.38
66681;BME280;53575;51.366;12.350;2023-04-10T12:06:15;100852.16;;;17.11;45.08
66681;BME280;53575;51.366;12.350;2023-04-10T12:08:46;100845.44;;;17.33;45.29
66681;BME280;53575;51.366;12.350;2023-04-10T12:11:19;100836.31;;;17.45;45.08
66681;BME280;53575;51.366;12.350;2023-04-10T12:13:47;100825.13;;;17.68;43.63
66681;BME280;53575;51.366;12.350;2023-04-10T12:16:16;100823.97;;;17.80;45.59
66681;BME280;53575;51.366;12.350;2023-04-10T12:18:42;100817.75;;;17.81;42.99
66681;BME280;53575;51.366;12.350;2023-04-10T12:21:09;100808.09;;;17.80;44.69
66681;BME280;53575;51.366;12.350;2023-04-10T12:23:36;100801.22;;;18.03;43.92
66681;BME280;53575;51.366;12.350;2023-04-10T12:26:09;100804.19;;;18.24;43.91
66681;BME280;53575;51.366;12.350;2023-04-10T12:28:36;100794.69;;;18.74;43.85
66681;BME280;53575;51.366;12.350;2023-04-10T12:31:02;100796.50;;;19.01;42.29
66681;BME280;53575;51.366;12.350;2023-04-10T12:33:28;100788.03;;;18.89;41.33
66681;BME280;53575;51.366;12.350;2023-04-10T12:35:53;100785.81;;;18.47;41.84
66681;BME280;53575;51.366;12.350;2023-04-10T12:38:42;100783.25;;;18.44;42.01
66681;BME280;53575;51.366;12.350;2023-04-10T12:41:09;100777.03;;;19.27;41.03
66681;BME280;53575;51.366;12.350;2023-04-10T12:43:39;100778.88;;;19.49;40.97
66681;BME280;53575;51.366;12.350;2023-04-10T12:46:08;100766.59;;;19.22;40.32
66681;BME280;53575;51.366;12.350;2023-04-10T12:48:33;100755.06;;;19.23;40.44
66681;BME280;53575;51.366;12.350;2023-04-10T12:50:59;100758.78;;;19.69;39.94
66681;BME280;53575;51.366;12.350;2023-04-10T12:53:25;100750.56;;;19.77;39.10
66681;BME280;53575;51.366;12.350;2023-04-10T12:58:24;100751.53;;;19.98;39.18
66681;BME280;53575;51.366;12.350;2023-04-10T13:00:55;100730.75;;;20.09;38.32
66681;BME280;53575;51.366;12.350;2023-04-10T13:03:21;100729.06;;;20.06;38.17
66681;BME280;53575;51.366;12.350;2023-04-10T13:05:47;100719.88;;;19.93;39.53
66681;BME280;53575;51.366;12.350;2023-04-10T13:08:13;100722.72;;;19.88;37.41
66681;BME280;53575;51.366;12.350;2023-04-10T13:10:38;100712.28;;;20.06;37.72
66681;BME280;53575;51.366;12.350;2023-04-10T13:13:06;100705.78;;;19.91;38.29
66681;BME280;53575;51.366;12.350;2023-04-10T13:15:32;100695.09;;;20.16;38.35
66681;BME280;53575;51.366;12.350;2023-04-10T13:18:01;100683.44;;;20.42;37.04
66681;BME280;53575;51.366;12.350;2023-04-10T13:20:26;100680.34;;;20.53;37.89
66681;BME280;53575;51.366;12.350;2023-04-10T13:22:52;100680.53;;;20.90;36.75
66681;BME280;53575;51.366;12.350;2023-04-10T13:25:17;100677.50;;;21.00;36.99
66681;BME280;53575;51.366;12.350;2023-04-10T13:27:43;100666.81;;;21.40;35.36
66681;BME280;53575;51.366;12.350;2023-04-10T13:30:08;100666.72;;;21.81;34.60
66681;BME280;53575;51.366;12.350;2023-04-10T13:32:34;100652.69;;;22.52;33.81